createdAt,value
2019-05-23T00:01:26.490Z,91.52
2019-05-23T00:04:23.289Z,91.78
2019-05-23T00:07:16.906Z,91.88
2019-05-23T00:10:09.583Z,91.30
2019-05-23T00:12:55.409Z,92.00
2019-05-23T00:15:42.477Z,92.17
2019-05-23T00:18:20.853Z,92.00
2019-05-23T00:20:52.001Z,92.04
2019-05-23T00:23:25.693Z,92.30
2019-05-23T00:25:59.621Z,92.44
2019-05-23T00:28:35.503Z,92.31
2019-05-23T00:31:21.447Z,92.32
2019-05-23T00:33:55.030Z,92.86
2019-05-23T00:36:29.176Z,92.39
2019-05-23T00:39:03.617Z,92.41
2019-05-23T00:41:37.343Z,92.23
2019-05-23T00:44:10.875Z,92.15
2019-05-23T00:46:43.889Z,92.41
2019-05-23T00:49:18.693Z,92.02
2019-05-23T00:51:52.897Z,92.24
2019-05-23T00:54:26.188Z,92.04
2019-05-23T00:56:59.449Z,92.27
2019-05-23T00:59:33.134Z,92.00
2019-05-23T01:02:07.677Z,92.33
2019-05-23T01:04:42.811Z,92.31
2019-05-23T01:07:17.281Z,92.29
2019-05-23T01:09:52.107Z,92.08
2019-05-23T01:12:25.101Z,92.08
2019-05-23T01:14:58.306Z,91.51
2019-05-23T01:17:33.665Z,90.74
2019-05-23T01:20:10.647Z,90.58
2019-05-23T01:22:45.874Z,90.95
2019-05-23T01:25:23.587Z,90.76
2019-05-23T01:27:56.784Z,91.17
2019-05-23T01:30:36.320Z,91.72
2019-05-23T01:33:10.393Z,92.01
2019-05-23T01:35:45.028Z,91.96
2019-05-23T01:38:19.521Z,91.58
2019-05-23T01:40:54.232Z,91.86
2019-05-23T01:43:27.726Z,91.84
2019-05-23T01:46:02.754Z,91.39
2019-05-23T01:48:35.909Z,90.95
2019-05-23T01:51:11.375Z,91.12
2019-05-23T01:53:44.477Z,91.08
2019-05-23T01:56:18.545Z,91.10
2019-05-23T01:58:51.852Z,91.41
2019-05-23T02:01:25.338Z,91.75
2019-05-23T02:03:58.378Z,92.02
2019-05-23T02:06:32.884Z,92.10
2019-05-23T02:09:09.017Z,92.27
2019-05-23T02:11:43.218Z,92.11
2019-05-23T02:14:16.703Z,92.17
2019-05-23T02:16:50.706Z,92.09
2019-05-23T02:19:23.766Z,92.26
2019-05-23T02:21:57.668Z,92.17
2019-05-23T02:24:31.686Z,91.41
2019-05-23T02:27:05.511Z,91.81
2019-05-23T02:29:39.333Z,91.85
2019-05-23T02:32:12.332Z,91.44
2019-05-23T02:34:45.774Z,91.56
2019-05-23T02:37:34.498Z,91.42
2019-05-23T02:40:18.327Z,91.56
2019-05-23T02:42:56.084Z,92.00
2019-05-23T02:45:35.211Z,91.86
2019-05-23T02:48:12.427Z,92.08
2019-05-23T02:50:56.061Z,92.15
2019-05-23T02:53:33.771Z,92.36
2019-05-23T02:56:11.800Z,92.69
2019-05-23T02:59:13.703Z,92.68
2019-05-23T03:03:03.406Z,92.89
2019-05-23T03:05:38.927Z,92.55
2019-05-23T03:08:12.984Z,92.25
2019-05-23T03:10:58.629Z,91.59
2019-05-23T03:13:34.530Z,91.11
2019-05-23T03:16:07.962Z,90.62
2019-05-23T03:18:46.223Z,90.78
2019-05-23T03:21:21.363Z,90.12
2019-05-23T03:23:54.290Z,89.95
2019-05-23T03:27:06.012Z,89.54
2019-05-23T03:29:39.711Z,89.60
2019-05-23T03:32:49.921Z,89.51
2019-05-23T03:35:44.465Z,88.99
2019-05-23T03:38:17.277Z,88.88
2019-05-23T03:40:50.723Z,88.42
2019-05-23T03:43:23.637Z,88.63
2019-05-23T03:46:02.073Z,88.72
2019-05-23T03:48:36.346Z,88.53
2019-05-23T03:51:10.381Z,88.57
2019-05-23T03:53:46.180Z,88.55
2019-05-23T03:56:20.455Z,87.85
2019-05-23T03:58:56.209Z,87.66
2019-05-23T04:01:45.929Z,87.83
2019-05-23T04:04:07.403Z,88.20
2019-05-23T04:06:40.290Z,87.98
2019-05-23T04:09:13.574Z,88.11
2019-05-23T04:11:46.640Z,87.41
2019-05-23T04:14:20.251Z,87.26
2019-05-23T04:16:53.389Z,87.55
2019-05-23T04:19:26.362Z,87.13
2019-05-23T04:21:59.371Z,86.98
2019-05-23T04:24:32.240Z,86.34
2019-05-23T04:27:05.465Z,86.61
2019-05-23T04:29:38.332Z,86.81
2019-05-23T04:32:11.474Z,88.02
2019-05-23T04:34:44.747Z,86.50
2019-05-23T04:37:17.687Z,85.48
2019-05-23T04:39:50.968Z,85.31
2019-05-23T04:42:24.002Z,85.12
2019-05-23T04:44:56.819Z,84.91
2019-05-23T04:47:31.151Z,84.43
2019-05-23T04:50:04.281Z,84.79
2019-05-23T04:52:37.363Z,84.77
2019-05-23T04:55:13.051Z,84.86
2019-05-23T04:57:47.151Z,85.37
2019-05-23T05:00:21.490Z,84.46
2019-05-23T05:02:55.365Z,84.88
2019-05-23T05:05:28.303Z,83.88
2019-05-23T05:08:01.447Z,84.67
2019-05-23T05:10:34.782Z,83.99
2019-05-23T05:13:08.036Z,83.78
2019-05-23T05:15:40.825Z,84.04
2019-05-23T05:18:14.438Z,83.83
2019-05-23T05:20:47.681Z,83.58
2019-05-23T05:23:20.667Z,83.62
2019-05-23T05:25:53.637Z,83.26
2019-05-23T05:28:26.474Z,84.03
2019-05-23T05:30:59.384Z,83.77
2019-05-23T05:33:32.197Z,83.53
2019-05-23T05:36:05.183Z,83.84
2019-05-23T05:38:38.675Z,83.44
2019-05-23T05:41:11.642Z,83.04
2019-05-23T05:43:44.545Z,83.00
2019-05-23T05:46:19.043Z,82.53
2019-05-23T05:48:52.931Z,82.12
2019-05-23T05:51:25.760Z,82.72
2019-05-23T05:53:59.392Z,82.24
2019-05-23T05:56:32.227Z,82.17
2019-05-23T05:59:05.610Z,82.26
2019-05-23T06:01:38.824Z,82.52
2019-05-23T06:04:11.723Z,82.14
2019-05-23T06:06:50.735Z,81.93
2019-05-23T06:09:26.348Z,81.44
2019-05-23T06:11:59.270Z,81.28
2019-05-23T06:14:32.651Z,80.83
2019-05-23T06:17:08.108Z,81.10
2019-05-23T06:19:41.022Z,81.01
2019-05-23T06:22:14.647Z,80.14
2019-05-23T06:24:53.126Z,80.88
2019-05-23T06:27:24.605Z,80.58
2019-05-23T06:29:58.002Z,80.57
2019-05-23T06:32:35.462Z,80.58
2019-05-23T06:35:16.481Z,80.53
2019-05-23T06:37:55.912Z,80.08
2019-05-23T06:40:29.671Z,80.07
2019-05-23T06:43:03.236Z,80.08
2019-05-23T06:45:36.586Z,79.98
2019-05-23T06:48:11.985Z,80.28
2019-05-23T06:50:47.657Z,80.23
2019-05-23T06:53:25.801Z,79.94
2019-05-23T06:55:58.974Z,79.72
2019-05-23T06:58:38.308Z,79.74
2019-05-23T07:01:18.891Z,79.85
2019-05-23T07:03:57.588Z,79.43
2019-05-23T07:06:34.162Z,79.82
2019-05-23T07:09:14.818Z,79.13
2019-05-23T07:11:47.827Z,78.60
2019-05-23T07:14:23.736Z,78.62
2019-05-23T07:16:56.915Z,78.62
2019-05-23T07:19:30.042Z,78.03
2019-05-23T07:22:03.123Z,78.11
2019-05-23T07:24:37.093Z,77.28
2019-05-23T07:27:10.075Z,77.54
2019-05-23T07:29:43.204Z,76.75
2019-05-23T07:32:16.252Z,76.84
2019-05-23T07:34:49.229Z,76.70
2019-05-23T07:37:22.689Z,76.41
2019-05-23T07:39:55.696Z,76.34
2019-05-23T07:42:28.892Z,76.86
2019-05-23T07:45:03.508Z,76.55
2019-05-23T07:47:39.917Z,76.25
2019-05-23T07:50:13.593Z,76.62
2019-05-23T07:52:46.860Z,75.64
2019-05-23T07:55:27.008Z,75.59
2019-05-23T07:58:05.409Z,75.86
2019-05-23T08:00:41.948Z,75.15
2019-05-23T08:03:15.962Z,74.63
2019-05-23T08:05:48.902Z,74.93
2019-05-23T08:08:23.865Z,75.58
2019-05-23T08:11:00.889Z,75.26
2019-05-23T08:13:34.122Z,74.78
2019-05-23T08:16:07.338Z,74.97
2019-05-23T08:18:40.341Z,74.87
2019-05-23T08:21:14.926Z,75.05
2019-05-23T08:23:49.303Z,74.10
2019-05-23T08:26:22.834Z,74.99
2019-05-23T08:29:24.163Z,74.46
2019-05-23T08:31:32.761Z,75.10
2019-05-23T08:34:06.485Z,74.31
2019-05-23T08:36:39.833Z,74.22
2019-05-23T08:39:14.494Z,74.70
2019-05-23T08:41:47.716Z,73.67
2019-05-23T08:44:20.985Z,74.58
2019-05-23T08:46:54.461Z,74.50
2019-05-23T08:49:27.968Z,73.77
2019-05-23T08:52:00.830Z,74.00
2019-05-23T08:54:33.993Z,73.86
2019-05-23T08:57:08.571Z,73.99
2019-05-23T08:59:41.424Z,73.31
2019-05-23T09:02:17.163Z,72.16
2019-05-23T09:05:03.700Z,72.61
2019-05-23T09:07:25.071Z,72.17
2019-05-23T09:09:58.080Z,71.76
2019-05-23T09:12:31.125Z,70.56
2019-05-23T09:15:04.502Z,69.70
2019-05-23T09:17:52.246Z,70.29
2019-05-23T09:20:14.075Z,68.26
2019-05-23T09:22:48.658Z,67.73
2019-05-23T09:25:23.020Z,66.76
2019-05-23T09:27:56.379Z,66.12
2019-05-23T09:30:31.425Z,66.81
2019-05-23T09:33:06.092Z,63.87
2019-05-23T09:35:39.380Z,64.92
2019-05-23T09:38:12.335Z,63.91
2019-05-23T09:40:46.040Z,63.32
2019-05-23T09:43:22.692Z,63.67
2019-05-23T09:45:58.223Z,63.08
2019-05-23T09:48:31.686Z,62.46
2019-05-23T09:51:04.829Z,64.08
2019-05-23T09:53:38.208Z,63.78
2019-05-23T09:56:11.309Z,62.61
2019-05-23T09:58:44.304Z,62.76
2019-05-23T10:01:19.348Z,61.61
2019-05-23T10:03:52.381Z,61.48
2019-05-23T10:06:27.705Z,61.21
2019-05-23T10:09:01.110Z,61.21
2019-05-23T10:11:35.352Z,62.23
2019-05-23T10:14:12.642Z,62.68
2019-05-23T10:16:46.214Z,61.46
2019-05-23T10:19:22.029Z,62.79
2019-05-23T10:21:54.981Z,62.48
2019-05-23T10:24:28.025Z,63.83
2019-05-23T10:27:00.992Z,61.79
2019-05-23T10:29:34.035Z,64.17
2019-05-23T10:32:10.334Z,61.91
2019-05-23T10:34:43.346Z,61.80
2019-05-23T10:37:19.769Z,62.22
2019-05-23T10:39:56.329Z,60.87
2019-05-23T10:42:29.669Z,61.08
2019-05-23T10:45:04.590Z,59.55
2019-05-23T10:47:39.106Z,57.98
2019-05-23T10:50:15.524Z,58.73
2019-05-23T10:52:48.701Z,58.51
2019-05-23T10:55:21.659Z,57.04
2019-05-23T10:57:54.858Z,58.21
2019-05-23T11:00:29.026Z,57.53
2019-05-23T11:03:04.509Z,57.35
2019-05-23T11:05:38.265Z,56.84
2019-05-23T11:08:11.554Z,57.59
2019-05-23T11:10:46.373Z,57.98
2019-05-23T11:13:20.990Z,57.49
2019-05-23T11:15:54.578Z,57.14
2019-05-23T11:20:46.406Z,56.14
2019-05-23T11:23:25.002Z,55.52
2019-05-23T11:26:01.079Z,57.19
2019-05-23T11:28:34.636Z,54.37
2019-05-23T11:31:08.635Z,54.64
2019-05-23T11:33:41.853Z,54.96
2019-05-23T11:36:31.904Z,56.15
2019-05-23T11:38:50.773Z,55.74
2019-05-23T11:41:25.195Z,56.29
2019-05-23T11:43:58.086Z,54.39
2019-05-23T11:46:37.198Z,55.91
2019-05-23T11:49:10.146Z,54.28
2019-05-23T11:51:43.561Z,52.81
2019-05-23T11:54:16.862Z,53.54
2019-05-23T11:56:50.510Z,53.13
2019-05-23T11:59:24.599Z,52.69
2019-05-23T12:02:12.530Z,52.90
2019-05-23T12:04:45.566Z,52.08
2019-05-23T12:07:25.931Z,52.79
2019-05-23T12:10:00.234Z,53.04
2019-05-23T12:12:33.547Z,52.72
2019-05-23T12:15:09.884Z,52.14
2019-05-23T12:17:44.614Z,52.15
2019-05-23T12:20:18.643Z,51.96
2019-05-23T12:22:51.926Z,51.31
2019-05-23T12:25:26.675Z,52.58
2019-05-23T12:27:59.661Z,51.80
2019-05-23T12:30:32.731Z,51.01
2019-05-23T12:33:06.359Z,52.20
2019-05-23T12:35:41.227Z,51.09
2019-05-23T12:38:15.771Z,52.95
2019-05-23T12:40:48.721Z,51.77
2019-05-23T12:43:21.650Z,51.14
2019-05-23T12:45:54.716Z,51.04
2019-05-23T12:48:38.264Z,50.83
2019-05-23T12:51:11.373Z,50.57
2019-05-23T12:53:44.499Z,49.21
2019-05-23T12:56:18.095Z,50.08
2019-05-23T12:58:51.666Z,49.74
2019-05-23T13:01:25.479Z,49.47
2019-05-23T13:03:59.045Z,50.09
2019-05-23T13:06:33.154Z,48.21
2019-05-23T13:09:09.240Z,49.19
2019-05-23T13:11:42.375Z,48.98
2019-05-23T13:14:16.578Z,48.59
2019-05-23T13:16:49.978Z,49.23
2019-05-23T13:19:23.080Z,47.88
2019-05-23T13:21:57.376Z,48.35
2019-05-23T13:24:50.560Z,48.24
2019-05-23T13:27:09.072Z,47.61
2019-05-23T13:29:42.536Z,47.65
2019-05-23T13:32:16.034Z,47.71
2019-05-23T13:34:49.013Z,47.49
2019-05-23T13:37:23.602Z,49.58
2019-05-23T13:39:56.630Z,49.74
2019-05-23T13:42:29.685Z,47.90
2019-05-23T13:45:02.637Z,49.08
2019-05-23T13:47:35.776Z,50.50
2019-05-23T13:50:09.317Z,50.95
2019-05-23T13:52:42.753Z,52.22
2019-05-23T13:55:16.917Z,49.66
2019-05-23T13:57:50.289Z,50.20
2019-05-23T14:00:25.069Z,50.40
2019-05-23T14:02:58.158Z,49.38
2019-05-23T14:05:31.519Z,49.18
2019-05-23T14:08:12.514Z,49.82
2019-05-23T14:10:40.426Z,50.73
2019-05-23T14:13:13.359Z,51.31
2019-05-23T14:15:49.027Z,50.84
2019-05-23T14:18:22.142Z,51.27
2019-05-23T14:20:55.260Z,49.52
2019-05-23T14:23:33.278Z,49.44
2019-05-23T14:26:06.483Z,48.00
2019-05-23T14:28:39.654Z,48.70
2019-05-23T14:31:35.655Z,48.11
2019-05-23T14:34:17.083Z,47.59
2019-05-23T14:36:59.265Z,48.47
2019-05-23T14:39:44.726Z,49.45
2019-05-23T14:42:45.978Z,49.12
2019-05-23T14:45:35.703Z,48.18
2019-05-23T14:48:26.452Z,49.11
2019-05-23T14:51:15.674Z,49.00
2019-05-23T14:53:52.502Z,46.46
2019-05-23T14:56:27.094Z,46.70
2019-05-23T14:59:00.278Z,44.87
2019-05-23T15:01:34.671Z,46.16
2019-05-23T15:04:08.199Z,47.33
2019-05-23T15:06:41.098Z,47.26
2019-05-23T15:09:14.054Z,46.76
2019-05-23T15:11:47.586Z,47.66
2019-05-23T15:14:20.703Z,46.15
2019-05-23T15:16:53.566Z,46.58
2019-05-23T15:19:41.859Z,47.13
2019-05-23T15:22:01.264Z,47.26
2019-05-23T15:24:34.520Z,46.28
2019-05-23T15:27:07.520Z,46.93
2019-05-23T15:29:40.560Z,45.63
2019-05-23T15:32:13.596Z,46.75
2019-05-23T15:34:46.463Z,47.19
2019-05-23T15:37:19.627Z,47.33
2019-05-23T15:39:52.683Z,46.43
2019-05-23T15:42:25.699Z,46.78
2019-05-23T15:44:58.748Z,46.93
2019-05-23T15:47:33.359Z,46.70
2019-05-23T15:50:11.917Z,47.41
2019-05-23T15:53:02.861Z,48.41
2019-05-23T15:55:57.511Z,48.52
2019-05-23T15:58:39.220Z,47.91
2019-05-23T16:01:19.347Z,48.46
2019-05-23T16:04:05.190Z,49.23
2019-05-23T16:06:40.366Z,47.44
2019-05-23T16:09:28.606Z,47.10
2019-05-23T16:11:48.496Z,47.77
2019-05-23T16:14:22.067Z,48.09
2019-05-23T16:16:56.838Z,48.24
2019-05-23T16:19:30.384Z,48.70
2019-05-23T16:22:04.386Z,48.01
2019-05-23T16:24:37.379Z,48.03
2019-05-23T16:27:12.158Z,48.48
2019-05-23T16:29:44.964Z,47.68
2019-05-23T16:32:17.785Z,48.04
2019-05-23T16:34:50.809Z,48.18
2019-05-23T16:37:23.951Z,48.86
2019-05-23T16:39:56.916Z,48.17
2019-05-23T16:42:30.315Z,48.89
2019-05-23T16:45:03.510Z,49.41
2019-05-23T16:47:36.875Z,49.28
2019-05-23T16:50:10.758Z,50.41
2019-05-23T16:52:49.552Z,49.03
2019-05-23T16:55:33.803Z,50.17
2019-05-23T16:58:16.705Z,51.17
2019-05-23T17:01:01.750Z,50.56
2019-05-23T17:03:43.018Z,50.02
2019-05-23T17:06:43.640Z,50.74
2019-05-23T17:09:35.313Z,50.73
2019-05-23T17:12:25.761Z,52.22
2019-05-23T17:15:10.898Z,51.43
2019-05-23T17:18:14.982Z,51.28
2019-05-23T17:21:06.367Z,52.24
2019-05-23T17:23:58.244Z,52.71
2019-05-23T17:27:08.453Z,50.94
2019-05-23T17:29:48.182Z,51.01
2019-05-23T17:32:25.632Z,50.78
2019-05-23T17:34:59.002Z,50.05
2019-05-23T17:37:32.494Z,51.08
2019-05-23T17:40:06.143Z,51.70
2019-05-23T17:42:39.246Z,51.42
2019-05-23T17:45:14.215Z,51.99
2019-05-23T17:47:47.589Z,52.33
2019-05-23T17:50:20.617Z,52.43
2019-05-23T17:52:53.637Z,52.24
2019-05-23T17:55:28.382Z,52.50
2019-05-23T17:58:01.400Z,52.76
2019-05-23T18:00:41.233Z,53.57
2019-05-23T18:03:15.404Z,53.16
2019-05-23T18:05:48.946Z,53.54
2019-05-23T18:08:23.704Z,53.63
2019-05-23T18:10:57.744Z,53.96
2019-05-23T18:13:32.601Z,53.87
2019-05-23T18:16:06.732Z,53.25
2019-05-23T18:18:40.198Z,53.90
2019-05-23T18:21:13.863Z,53.96
2019-05-23T18:23:48.859Z,54.46
2019-05-23T18:26:22.153Z,55.30
2019-05-23T18:28:56.328Z,55.78
2019-05-23T18:31:32.257Z,56.68
2019-05-23T18:34:07.924Z,57.56
2019-05-23T18:36:41.787Z,58.59
2019-05-23T18:39:17.071Z,58.47
2019-05-23T18:41:50.554Z,57.27
2019-05-23T18:44:24.526Z,57.43
2019-05-23T18:47:00.182Z,57.26
2019-05-23T18:49:34.925Z,57.88
2019-05-23T18:52:09.418Z,57.55
2019-05-23T18:54:45.070Z,57.36
2019-05-23T18:57:19.339Z,57.90
2019-05-23T18:59:53.255Z,58.49
2019-05-23T19:02:27.118Z,58.69
2019-05-23T19:05:02.353Z,58.32
2019-05-23T19:07:35.960Z,58.53
2019-05-23T19:10:11.636Z,58.64
2019-05-23T19:12:45.476Z,58.93
2019-05-23T19:15:19.197Z,59.52
2019-05-23T19:17:53.234Z,59.99
2019-05-23T19:20:26.617Z,61.12
2019-05-23T19:23:01.051Z,62.68
2019-05-23T19:25:37.799Z,64.62
2019-05-23T19:28:12.917Z,65.21
2019-05-23T19:30:46.952Z,65.68
2019-05-23T19:33:20.644Z,66.41
2019-05-23T19:35:54.237Z,68.05
2019-05-23T19:38:28.443Z,68.87
2019-05-23T19:41:02.906Z,69.60
2019-05-23T19:43:48.111Z,69.77
2019-05-23T19:46:21.592Z,70.25
2019-05-23T19:48:59.133Z,70.30
2019-05-23T19:51:37.404Z,69.14
2019-05-23T19:54:41.399Z,68.67
2019-05-23T19:57:30.964Z,68.21
2019-05-23T20:05:06.121Z,69.60
2019-05-23T20:07:41.635Z,67.77
2019-05-23T20:10:16.065Z,68.02
2019-05-23T20:12:49.587Z,66.04
2019-05-23T20:15:23.634Z,64.76
2019-05-23T20:17:57.267Z,64.04
2019-05-23T20:20:34.807Z,64.05
2019-05-23T20:23:09.474Z,63.84
2019-05-23T20:25:42.976Z,63.95
2019-05-23T20:28:16.342Z,63.90
2019-05-23T20:30:58.873Z,64.14
2019-05-23T20:33:32.532Z,64.55
2019-05-23T20:36:12.270Z,64.81
2019-05-23T20:38:47.006Z,66.97
2019-05-23T20:41:22.305Z,66.47
2019-05-23T20:43:55.603Z,67.04
2019-05-23T20:46:29.291Z,66.99
2019-05-23T20:49:02.626Z,67.57
2019-05-23T20:51:37.879Z,67.98
2019-05-23T20:54:14.485Z,68.62
2019-05-23T20:56:48.057Z,68.60
2019-05-23T20:59:21.465Z,69.00
2019-05-23T21:01:54.706Z,68.96
2019-05-23T21:04:27.846Z,67.63
2019-05-23T21:07:01.087Z,67.22
2019-05-23T21:09:34.862Z,66.04
2019-05-23T21:12:08.970Z,66.22
2019-05-23T21:14:42.756Z,67.65
2019-05-23T21:17:16.323Z,67.04
2019-05-23T21:19:49.436Z,66.93
2019-05-23T21:22:22.768Z,66.95
2019-05-23T21:24:56.644Z,67.20
2019-05-23T21:27:30.048Z,67.21
2019-05-23T21:30:03.156Z,66.97
2019-05-23T21:32:37.177Z,67.41
2019-05-23T21:35:10.402Z,67.51
2019-05-23T21:37:43.527Z,67.67
2019-05-23T21:40:32.641Z,67.79
2019-05-23T21:43:05.999Z,67.09
2019-05-23T21:45:39.319Z,66.76
2019-05-23T21:48:13.489Z,67.28
2019-05-23T21:50:46.555Z,68.76
2019-05-23T21:53:20.006Z,69.26
2019-05-23T21:55:53.449Z,70.14
2019-05-23T21:58:26.695Z,69.66
2019-05-23T22:01:57.907Z,69.07
2019-05-23T22:04:38.279Z,69.82
2019-05-23T22:07:12.136Z,70.07
2019-05-23T22:09:45.335Z,71.13
2019-05-23T22:12:18.503Z,72.17
2019-05-23T22:14:51.936Z,74.78
2019-05-23T22:17:26.639Z,75.90
2019-05-23T22:19:59.719Z,75.35
2019-05-23T22:22:33.181Z,75.67
2019-05-23T22:25:06.526Z,75.96
2019-05-23T22:27:39.666Z,76.52
2019-05-23T22:30:12.859Z,76.55
2019-05-23T22:32:46.527Z,76.49
2019-05-23T22:35:20.604Z,76.34
2019-05-23T22:37:53.903Z,76.17
2019-05-23T22:40:26.820Z,76.00
2019-05-23T22:43:00.412Z,76.86
2019-05-23T22:45:34.197Z,75.71
2019-05-23T22:48:07.347Z,73.87
2019-05-23T22:50:40.254Z,73.28
2019-05-23T22:53:13.213Z,72.97
2019-05-23T22:55:46.344Z,72.40
2019-05-23T22:58:19.375Z,72.84
2019-05-23T23:00:52.384Z,71.92
2019-05-23T23:03:25.564Z,70.89
2019-05-23T23:05:58.608Z,71.45
2019-05-23T23:08:33.110Z,70.86
2019-05-23T23:11:06.141Z,70.62
2019-05-23T23:13:39.506Z,70.74
2019-05-23T23:16:13.148Z,70.96
2019-05-23T23:18:46.418Z,70.65
2019-05-23T23:21:19.680Z,70.60
2019-05-23T23:23:52.849Z,70.81
2019-05-23T23:26:25.800Z,70.86
2019-05-23T23:28:59.273Z,70.64
2019-05-23T23:31:32.795Z,71.28
2019-05-23T23:34:05.824Z,71.48
2019-05-23T23:36:38.774Z,72.19
2019-05-23T23:39:11.929Z,72.45
2019-05-23T23:41:44.887Z,72.15
2019-05-23T23:44:18.017Z,72.25
2019-05-23T23:47:08.320Z,71.73
2019-05-23T23:49:58.699Z,71.39
2019-05-23T23:52:49.377Z,71.37
2019-05-23T23:55:40.467Z,71.19
2019-05-23T23:58:12.517Z,71.08
